Sun Valley, CA

02:01 PM PST die 05o February, anno 2016 (GMT -0800)
Burbank-Glendale-Pasadena | | Change Station
CLOSE
Current Station
Airport
Location: Burbank,
Elevation: 774 ft
Nearby Weather Stations
Active Advisory: Wind Advisory Active Notice: Public Information Statement

Elev 774 ft 34.20 °N, 118.36 °W | Updated 8 minutes ago

Serena
Serena
73 °F
Feels Like 73 °F
N
0
Ventus Variabilis Ventus from Aquilo

Hodie
High -- | Low -- °F
--% Chance of Precip.
Yesterday
High -- | Low -- °F
Precip. -- in
Pressio 30.23 in
Visibilitas 10.0 milia passuum
Clouds Serena
Frigus in quo Ros apparet 20 °F
Umor 14%
Rainfall 0.00 in
Snow Depth Not available.
6:48 AM 5:27 PM
Waning Crescent, 9% visible
METAR KBUR 052153Z 00000KT 10SM CLR 23/M07 A3025 RMK AO2 SLP236 T02281067 $
Pressio 30.23 in
Visibilitas 10.0 milia passuum
Clouds Serena
Frigus in quo Ros apparet 20 °F
Umor 14%
Rainfall 0.00 in
Snow Depth Not available.
6:48 AM 5:27 PM
Waning Crescent, 9% visible
METAR KBUR 052153Z 00000KT 10SM CLR 23/M07 A3025 RMK AO2 SLP236 T02281067 $

10-Day Weather Forecast

Almanac

Astronomy

Feb. 05, 2016 Rise Set
Actual Time
Civil Twilight
Nautical Twilight
Astronomical Twilight
Moon
Length Of Visible Light
Length of Day
Tomorrow will be .
, % of the Moon is Illuminated

Today's Extremes

State Highs State Lows

Community

WunderPhotos

Upload Photos

1,890,873 photos uploaded!

WunderBlog® & News

Nearby

Air Quality

  Air Quality AQ Index Pollutant
Not available.

Snow Depth

Station Depth Elevation

Earthquake Activity

City Distance Mag. Time & Date
Minimum magnitude displayed is 2.5.

Coastal Water Temperatures

Locus Calor

Stations

Nearby Weather Stations

Station Location Temp Frigus Venti Frigus in quo Ros apparet Umor Ventus Precip. Elev Renovata Type
                   

Watches & Warnings

Wind Advisory
Issued: 11:05 AM PST Feb. 5, 2016 – National Weather Service

... Wind Advisory remains in effect until 2 PM PST Saturday...

* winds... areas of northeast winds 20 to 30 with gusts 45 mph.
Locations most prone to Santa Ana winds include the eastern
portion of Ventura County... the Santa Clarita valley... the
western San Fernando Valley... and the Santa Monica Mountains.

* Impacts... gusty winds will make driving difficult... especially
for drivers of high profile vehicles.

Precautionary/preparedness actions...

When driving... use extra caution. Be prepared for sudden gusty
cross winds.